Samus Swan — 9HA2333 — position and weather

sailwx.info

Track history (hours):
 
Tides and Currents Weather Stations Pressure Air Temp Water Temp Dewpoint Dewpoint Depression Visibility Wind Speed Wind Dir Waves Ship Positions

Samus Swan

Last reported at 2017-Apr-21 02:00 UTC. Time now 2017-May-01 04:11 UTC.
Position N 43°05' E 009°34'.
Warning: this ship's position is 10 days out of date.

Length 106 m; draft 7 m.

Type: Ship (hazmat cat B). MMSI: 248363000.

Date/timePositionNaut miles runAvg speedWind from/ knotsBaromVisibWave heightAir tempDewpointWater temp
2017-Apr-21 02:00N 43°05' E 009°34'510.1
2017-Apr-21 01:30N 43°09' E 009°31'510.2
2017-Apr-21 01:00N 43°14' E 009°28'510.4
2017-Apr-21 00:30N 43°18' E 009°25'510.5
2017-Apr-21 00:00N 43°23' E 009°22'510.3
2017-Apr-20 23:30N 43°28' E 009°19'510.3
2017-Apr-20 23:00N 43°33' E 009°16'510.2
2017-Apr-20 22:30N 43°37' E 009°13'510.0
2017-Apr-20 21:59N 43°42' E 009°10'5 9.8
2017-Apr-20 21:30N 43°46' E 009°07'5 9.7
2017-Apr-20 21:00N 43°51' E 009°05'5 9.8
2017-Apr-20 20:30N 43°55' E 009°02'5 9.9
2017-Apr-20 20:00N 43°60' E 008°59'510.1
2017-Apr-20 19:30N 44°04' E 008°56'510.0
2017-Apr-20 19:00N 44°09' E 008°53'510.0
2017-Apr-20 18:30N 44°13' E 008°51'5 9.9
2017-Apr-20 18:00N 44°18' E 008°47'4 8.9
2017-Apr-20 17:30N 44°22' E 008°46'4 7.4
2017-Apr-20 17:00N 44°25' E 008°49'0 0.7
2017-Apr-20 16:23N 44°25' E 008°50'0 0.0
2017-Apr-20 15:50N 44°25' E 008°50'0 0.0
2017-Apr-20 15:20N 44°25' E 008°50'0 0.0
2017-Apr-20 14:56N 44°25' E 008°50'0 0.0
2017-Apr-20 14:26N 44°25' E 008°50'0 0.0
2017-Apr-20 13:26N 44°25' E 008°50'0 0.0
2017-Apr-20 12:56N 44°25' E 008°50'0 0.0
2017-Apr-20 12:26N 44°25' E 008°50'0 0.0
2017-Apr-20 11:59N 44°25' E 008°50'0 0.0
2017-Apr-20 11:26N 44°25' E 008°50'0 0.0
2017-Apr-20 10:56N 44°25' E 008°50'0 0.0
2017-Apr-20 10:26N 44°25' E 008°50'0 0.0
2017-Apr-20 09:44N 44°25' E 008°50'0 0.0
2017-Apr-20 09:26N 44°25' E 008°50'0 0.0
2017-Apr-20 08:47N 44°25' E 008°50'0 0.0
2017-Apr-20 08:29N 44°25' E 008°50'0 0.0
2017-Apr-20 07:59N 44°25' E 008°50'0 0.0
2017-Apr-20 07:29N 44°25' E 008°50'0 0.0
2017-Apr-20 06:47N 44°25' E 008°50'0 0.0
2017-Apr-20 06:29N 44°25' E 008°50'0 0.3
2017-Apr-20 06:01N 44°25' E 008°50'2 3.8
2017-Apr-20 05:31N 44°24' E 008°48'1 1.2
2017-Apr-20 05:01N 44°23' E 008°47'2 3.4
2017-Apr-20 04:30N 44°22' E 008°47'3 6.7
2017-Apr-20 04:01N 44°19' E 008°45'3 6.7
2017-Apr-20 03:30N 44°15' E 008°43'2 4.6
2017-Apr-20 03:00N 44°13' E 008°42'0 0.8
2017-Apr-20 02:31N 44°14' E 008°42'0 0.9
2017-Apr-20 02:01N 44°14' E 008°43'0 0.9
2017-Apr-20 01:30N 44°14' E 008°43'0 0.9
2017-Apr-20 01:00N 44°15' E 008°43'0 1.0
2017-Apr-20 00:31N 44°15' E 008°44'0 1.0
2017-Apr-20 00:00N 44°15' E 008°44'1 1.0
2017-Apr-19 23:28N 44°16' E 008°45'0 0.9
2017-Apr-19 22:58N 44°16' E 008°45'1 2.4
2017-Apr-19 22:30N 44°16' E 008°44'5 9.0
2017-Apr-19 22:00N 44°12' E 008°41'5 9.1
2017-Apr-19 21:30N 44°09' E 008°36'5 9.1
2017-Apr-19 20:56N 44°06' E 008°31'31 9.6
2017-Apr-19 17:39N 43°45' E 007°58'210.4
2017-Apr-19 17:28N 43°44' E 007°56'510.4
2017-Apr-19 17:00N 43°41' E 007°51'510.3
2017-Apr-19 16:30N 43°38' E 007°45'510.3
2017-Apr-19 16:00N 43°35' E 007°40'510.0
2017-Apr-19 15:30N 43°31' E 007°34'5 9.8
2017-Apr-19 15:00N 43°28' E 007°29'5 9.7
2017-Apr-19 14:30N 43°25' E 007°24'10 9.7
2017-Apr-19 13:30N 43°19' E 007°13'94 8.8
2017-Apr-19 02:52N 43°10' E 005°06'910.6
2017-Apr-19 01:59N 43°18' E 004°59'510.4
2017-Apr-19 01:30N 43°23' E 004°58'2 3.2
2017-Apr-19 00:59N 43°24' E 004°60'0 0.0
2017-Apr-19 00:29N 43°24' E 004°60'0 0.0
2017-Apr-18 23:59N 43°24' E 004°60'0 0.0
2017-Apr-18 23:29N 43°24' E 004°60'0 0.0
2017-Apr-18 22:59N 43°24' E 004°60'0 0.0
2017-Apr-18 22:20N 43°24' E 004°60'0 0.0
2017-Apr-18 21:59N 43°24' E 004°60'0 0.0
2017-Apr-18 21:29N 43°24' E 004°60'0 0.0
2017-Apr-18 20:56N 43°24' E 004°60'0 0.0
2017-Apr-18 20:29N 43°24' E 004°60'0 0.0
2017-Apr-18 19:59N 43°24' E 004°60'0 0.0
2017-Apr-18 19:29N 43°24' E 004°60'0 0.0
2017-Apr-18 18:59N 43°24' E 004°60'0 0.0
2017-Apr-18 18:26N 43°24' E 004°60'0 0.0
2017-Apr-18 17:59N 43°24' E 004°60'0 0.0
2017-Apr-18 17:29N 43°24' E 004°60'0 0.0
2017-Apr-18 16:59N 43°24' E 004°60'0 0.0
2017-Apr-18 16:23N 43°24' E 004°60'0 0.0
2017-Apr-18 15:59N 43°24' E 004°60'0 0.0
2017-Apr-18 15:26N 43°24' E 004°60'0 0.0
2017-Apr-18 14:59N 43°24' E 004°60'0 0.0
2017-Apr-18 13:59N 43°24' E 004°60'0 0.0
2017-Apr-18 13:26N 43°24' E 004°60'0 0.0
2017-Apr-18 12:59N 43°24' E 004°60'0 0.0
2017-Apr-18 12:26N 43°24' E 004°60'0 0.0
2017-Apr-18 11:59N 43°24' E 004°60'0 0.0
2017-Apr-18 11:29N 43°24' E 004°60'0 0.0
2017-Apr-18 10:56N 43°24' E 004°60'0 0.0
2017-Apr-18 10:26N 43°24' E 004°60'0 0.0
2017-Apr-18 09:56N 43°24' E 004°60'0 0.0
2017-Apr-18 09:29N 43°24' E 004°60'0 0.0
2017-Apr-18 08:59N 43°24' E 004°60'0 0.0
2017-Apr-18 08:26N 43°24' E 004°60'0 0.0
2017-Apr-18 07:59N 43°24' E 004°60'0 0.0
2017-Apr-18 07:29N 43°24' E 004°60'0 0.0
2017-Apr-18 06:59N 43°24' E 004°60'0 0.0
2017-Apr-18 06:29N 43°24' E 004°60'0 0.0
2017-Apr-18 05:59N 43°24' E 004°60'0 0.0
2017-Apr-18 05:23N 43°24' E 004°60'0 0.0
2017-Apr-18 04:56N 43°24' E 004°60'0 0.0
2017-Apr-18 04:29N 43°24' E 004°60'0 0.0
2017-Apr-18 03:59N 43°24' E 004°60'0 0.0
2017-Apr-18 03:26N 43°24' E 004°60'0 0.0
2017-Apr-18 02:59N 43°24' E 004°60'0 0.0
2017-Apr-18 02:29N 43°24' E 004°60'0 0.0
2017-Apr-18 01:59N 43°24' E 004°60'0 0.0
2017-Apr-18 01:29N 43°24' E 004°60'0 0.0
2017-Apr-18 00:56N 43°24' E 004°60'0 0.0
2017-Apr-18 00:29N 43°24' E 004°60'0 0.0
2017-Apr-17 23:59N 43°24' E 004°60'0 0.0
2017-Apr-17 23:29N 43°24' E 004°60'0 0.0
2017-Apr-17 22:59N 43°24' E 004°60'0 0.0
2017-Apr-17 22:26N 43°24' E 004°60'0 0.0
2017-Apr-17 21:59N 43°24' E 004°60'0 0.0
2017-Apr-17 21:26N 43°24' E 004°60'0 0.0
2017-Apr-17 20:59N 43°24' E 004°60'0 0.0
2017-Apr-17 20:29N 43°24' E 004°60'0 0.0
2017-Apr-17 19:59N 43°24' E 004°60'0 0.0
2017-Apr-17 19:26N 43°24' E 004°60'0 0.0
2017-Apr-17 18:56N 43°24' E 004°60'0 0.0
2017-Apr-17 18:26N 43°24' E 004°60'0 0.0
2017-Apr-17 17:59N 43°24' E 004°60'0 0.0
2017-Apr-17 17:29N 43°24' E 004°60'0 0.0
2017-Apr-17 16:59N 43°24' E 004°60'0 0.0
2017-Apr-17 16:20N 43°24' E 004°60'0 0.0
2017-Apr-17 15:59N 43°24' E 004°60'0 0.0
2017-Apr-17 15:26N 43°24' E 004°60'0 0.0
2017-Apr-17 14:53N 43°24' E 004°60'0 0.0
2017-Apr-17 14:29N 43°24' E 004°60'0 0.0
2017-Apr-17 13:26N 43°24' E 004°60'0 0.0
2017-Apr-17 12:59N 43°24' E 004°60'0 0.0
2017-Apr-17 12:29N 43°24' E 004°60'0 0.0
2017-Apr-17 11:56N 43°24' E 004°60'0 0.0
2017-Apr-17 11:26N 43°24' E 004°60'0 0.0
2017-Apr-17 10:56N 43°24' E 004°60'0 0.0
2017-Apr-17 10:29N 43°24' E 004°60'0 0.0
2017-Apr-17 09:56N 43°24' E 004°60'0 0.0
2017-Apr-17 09:29N 43°24' E 004°60'0 0.0
2017-Apr-17 08:59N 43°24' E 004°60'0 0.0
2017-Apr-17 08:29N 43°24' E 004°60'0 0.5
2017-Apr-17 08:00N 43°24' E 004°60'2 3.0
2017-Apr-17 07:28N 43°24' E 004°57'0 0.1
2017-Apr-17 06:58N 43°23' E 004°57'0 0.0
2017-Apr-17 06:28N 43°23' E 004°57'0 0.0
2017-Apr-17 05:55N 43°23' E 004°57'0 0.0
2017-Apr-17 05:28N 43°23' E 004°57'0 0.0
2017-Apr-17 04:58N 43°23' E 004°58'0 0.0
2017-Apr-17 04:28N 43°23' E 004°58'0 0.0
2017-Apr-17 03:58N 43°23' E 004°58'0 0.0
2017-Apr-17 03:28N 43°23' E 004°58'0 0.0
2017-Apr-17 02:58N 43°23' E 004°57'0 0.0
2017-Apr-17 02:25N 43°23' E 004°57'0 0.0
2017-Apr-17 01:55N 43°23' E 004°57'0 0.0
2017-Apr-17 01:28N 43°23' E 004°57'0 0.0
2017-Apr-17 00:58N 43°23' E 004°57'0 0.0
2017-Apr-17 00:25N 43°23' E 004°57'0 0.0
2017-Apr-16 23:58N 43°23' E 004°57'0 0.0
2017-Apr-16 23:28N 43°23' E 004°57'0 0.0
2017-Apr-16 22:55N 43°23' E 004°57'0 0.1
2017-Apr-16 22:28N 43°23' E 004°57'2 4.0
2017-Apr-16 22:00N 43°22' E 004°58'6 6.6
2017-Apr-16 21:04N 43°16' E 005°01'0 7.2
2017-Apr-16 21:00N 43°15' E 005°01'16 7.9
2017-Apr-16 19:02N 43°02' E 004°51'0 8.9
2017-Apr-16 19:01N 43°01' E 004°51'18 8.9
2017-Apr-16 17:02N 42°48' E 004°36'0 9.1
2017-Apr-16 17:00N 42°47' E 004°36'13 8.9
2017-Apr-16 15:34N 42°37' E 004°25'107 7.4
2017-Apr-16 01:04N 41°23' E 002°42'111.6
2017-Apr-16 01:00N 41°23' E 002°41'611.7
2017-Apr-16 00:30N 41°20' E 002°34'711.6
2017-Apr-15 23:55N 41°17' E 002°26'912.2
2017-Apr-15 23:13N 41°17' E 002°15'311.7
2017-Apr-15 22:59N 41°17' E 002°11'4 5.1
2017-Apr-15 22:14N 41°20' E 002°09'0 0.0
2017-Apr-15 05:01N 41°20' E 002°09'1 2.6
2017-Apr-15 04:48N 41°21' E 002°10'2 6.5
2017-Apr-15 04:30N 41°19' E 002°10'3 5.9
2017-Apr-15 04:00N 41°16' E 002°12'3 6.2
2017-Apr-15 03:30N 41°14' E 002°09'510.4
2017-Apr-15 03:00N 41°09' E 002°06'611.2
2017-Apr-15 02:30N 41°04' E 002°03'611.4
2017-Apr-15 02:00N 40°59' E 001°59'611.2
2017-Apr-15 01:30N 40°54' E 001°56'610.9
2017-Apr-15 01:00N 40°49' E 001°52'510.9
2017-Apr-15 00:30N 40°44' E 001°49'511.0
2017-Apr-15 00:00N 40°39' E 001°46'611.4
2017-Apr-14 23:30N 40°34' E 001°42'611.5
2017-Apr-14 23:00N 40°29' E 001°39'611.6
2017-Apr-14 22:30N 40°24' E 001°36'611.4
2017-Apr-14 22:00N 40°19' E 001°32'611.3
2017-Apr-14 21:30N 40°14' E 001°29'611.4
2017-Apr-14 21:00N 40°09' E 001°25'611.4
2017-Apr-14 20:30N 40°04' E 001°22'611.5
2017-Apr-14 20:00N 39°59' E 001°19'611.5
2017-Apr-14 19:30N 39°54' E 001°15'611.5
2017-Apr-14 19:00N 39°49' E 001°12'8310.3
2017-Apr-14 11:00N 38°35' E 000°22'611.5
2017-Apr-14 10:30N 38°31' E 000°18'611.3
2017-Apr-14 10:00N 38°26' E 000°14'611.5
2017-Apr-14 09:30N 38°21' E 000°10'3211.3
2017-Apr-14 06:41N 37°54' W 000°12'1111.0
2017-Apr-14 05:39N 37°45' W 000°21'210.9
2017-Apr-14 05:30N 37°44' W 000°22'510.8
2017-Apr-14 05:00N 37°39' W 000°26'510.7
2017-Apr-14 04:30N 37°35' W 000°29'611.0
2017-Apr-14 04:00N 37°31' W 000°34'1311.4
2017-Apr-14 02:53N 37°23' W 000°46'511.2
2017-Apr-14 02:29N 37°20' W 000°50'19810.1
2017-Apr-13 06:56N 36°05' W 004°39'1410.3
2017-Apr-13 05:37N 36°02' W 004°55'212.0
2017-Apr-13 05:29N 36°02' W 004°58'611.9
2017-Apr-13 04:59N 36°01' W 005°05'613.3
2017-Apr-13 04:30N 36°00' W 005°13'714.1
2017-Apr-13 04:00N 35°59' W 005°21'713.4
2017-Apr-13 03:30N 35°57' W 005°29'612.0
2017-Apr-13 03:00N 35°56' W 005°36'510.8
2017-Apr-13 02:30N 35°55' W 005°43'511.2
2017-Apr-13 02:00N 35°55' W 005°50'510.8
2017-Apr-13 01:30N 35°55' W 005°56'4810.9
2017-Apr-12 21:07N 36°02' W 006°55'111.7
2017-Apr-12 21:00N 36°02' W 006°56'611.6
2017-Apr-12 20:28N 36°04' W 007°04'511.4
2017-Apr-12 20:00N 36°05' W 007°10'711.7
2017-Apr-12 19:23N 36°07' W 007°19'611.9
2017-Apr-12 18:53N 36°08' W 007°26'511.6
2017-Apr-12 18:29N 36°09' W 007°31'711.9
2017-Apr-12 17:55N 36°11' W 007°40'511.4
2017-Apr-12 17:28N 36°12' W 007°46'611.3
2017-Apr-12 16:54N 36°13' W 007°54'511.2
2017-Apr-12 16:29N 36°15' W 007°59'4010.9
2017-Apr-12 12:47N 36°24' W 008°48'310.9
2017-Apr-12 12:30N 36°25' W 008°51'511.0
2017-Apr-12 12:00N 36°26' W 008°58'610.9
2017-Apr-12 11:30N 36°28' W 009°05'1310.9
2017-Apr-12 10:20N 36°30' W 009°20'411.1
2017-Apr-12 10:00N 36°33' W 009°23'611.4
2017-Apr-12 09:30N 36°37' W 009°28'611.3
2017-Apr-12 09:00N 36°41' W 009°33'611.3
2017-Apr-12 08:30N 36°46' W 009°37'611.2
2017-Apr-12 08:00N 36°51' W 009°39'611.3
2017-Apr-12 07:30N 36°56' W 009°41'611.3
2017-Apr-12 07:00N 37°02' W 009°43'511.2
2017-Apr-12 06:30N 37°07' W 009°45'611.3
2017-Apr-12 06:00N 37°13' W 009°47'611.3
2017-Apr-12 05:28N 37°18' W 009°49'2111.3
2017-Apr-12 03:37N 37°38' W 009°58'111.4
2017-Apr-12 03:30N 37°39' W 009°59'611.3
2017-Apr-12 03:00N 37°45' W 010°02'611.2
2017-Apr-12 02:30N 37°50' W 010°04'611.2
2017-Apr-12 02:00N 37°55' W 010°06'510.5
2017-Apr-12 01:30N 38°00' W 010°08'1 1.1
2017-Apr-12 01:00N 38°01' W 010°08'1 2.9
2017-Apr-12 00:30N 38°02' W 010°07'4 8.7
2017-Apr-12 00:01N 38°05' W 010°04'5 8.1
2017-Apr-11 23:27N 38°09' W 010°02'510.6
2017-Apr-11 23:01N 38°14' W 010°04'510.9
2017-Apr-11 22:30N 38°19' W 010°05'510.7
2017-Apr-11 22:00N 38°25' W 010°06'510.4
2017-Apr-11 21:30N 38°30' W 010°08'510.4
2017-Apr-11 21:00N 38°35' W 010°10'510.5
2017-Apr-11 20:29N 38°40' W 010°11'510.3
2017-Apr-11 20:00N 38°45' W 010°11'510.5
2017-Apr-11 19:30N 38°50' W 010°11'511.0
2017-Apr-11 19:00N 38°56' W 010°12'611.2
2017-Apr-11 18:30N 39°01' W 010°11'611.0
2017-Apr-11 18:00N 39°07' W 010°11'610.5
2017-Apr-11 17:28N 39°12' W 010°11'510.4
2017-Apr-11 17:01N 39°17' W 010°11'610.8
2017-Apr-11 16:30N 39°23' W 010°11'510.4
2017-Apr-11 16:00N 39°28' W 010°11'510.3
2017-Apr-11 15:30N 39°33' W 010°11'510.5
2017-Apr-11 15:00N 39°38' W 010°11'510.7
2017-Apr-11 14:30N 39°44' W 010°11'1110.7
2017-Apr-11 13:30N 39°54' W 010°12'510.8
2017-Apr-11 13:00N 39°60' W 010°11'610.6
2017-Apr-11 12:24N 40°06' W 010°11'410.8
2017-Apr-11 12:00N 40°10' W 010°11'510.7
2017-Apr-11 11:30N 40°16' W 010°11'510.4
2017-Apr-11 11:00N 40°21' W 010°11'510.8
2017-Apr-11 10:30N 40°26' W 010°11'510.9
2017-Apr-11 10:00N 40°32' W 010°11'510.6
2017-Apr-11 09:30N 40°37' W 010°11'510.7
2017-Apr-11 09:00N 40°42' W 010°11'  
Track history (hours):
 
Tides and Currents Weather Stations Pressure Air Temp Water Temp Dewpoint Dewpoint Depression Visibility Wind Speed Wind Dir Waves Ship Positions

Samus Swan

Last reported at 2017-Apr-21 02:00 UTC. Time now 2017-May-01 04:11 UTC.
Position N 43°05' E 009°34'.
Warning: this ship's position is 10 days out of date.

Length 106 m; draft 7 m.

Type: Ship (hazmat cat B). MMSI: 248363000.

Date/timePositionNaut miles runAvg speedWind from/ knotsBaromVisibWave heightAir tempDewpointWater temp
2017-Apr-21 02:00N 43°05' E 009°34'510.1
2017-Apr-21 01:30N 43°09' E 009°31'510.2
2017-Apr-21 01:00N 43°14' E 009°28'510.4
2017-Apr-21 00:30N 43°18' E 009°25'510.5
2017-Apr-21 00:00N 43°23' E 009°22'510.3
2017-Apr-20 23:30N 43°28' E 009°19'510.3
2017-Apr-20 23:00N 43°33' E 009°16'510.2
2017-Apr-20 22:30N 43°37' E 009°13'510.0
2017-Apr-20 21:59N 43°42' E 009°10'5 9.8
2017-Apr-20 21:30N 43°46' E 009°07'5 9.7
2017-Apr-20 21:00N 43°51' E 009°05'5 9.8
2017-Apr-20 20:30N 43°55' E 009°02'5 9.9
2017-Apr-20 20:00N 43°60' E 008°59'510.1
2017-Apr-20 19:30N 44°04' E 008°56'510.0
2017-Apr-20 19:00N 44°09' E 008°53'510.0
2017-Apr-20 18:30N 44°13' E 008°51'5 9.9
2017-Apr-20 18:00N 44°18' E 008°47'4 8.9
2017-Apr-20 17:30N 44°22' E 008°46'4 7.4
2017-Apr-20 17:00N 44°25' E 008°49'0 0.7
2017-Apr-20 16:23N 44°25' E 008°50'0 0.0
2017-Apr-20 15:50N 44°25' E 008°50'0 0.0
2017-Apr-20 15:20N 44°25' E 008°50'0 0.0
2017-Apr-20 14:56N 44°25' E 008°50'0 0.0
2017-Apr-20 14:26N 44°25' E 008°50'0 0.0
2017-Apr-20 13:26N 44°25' E 008°50'0 0.0
2017-Apr-20 12:56N 44°25' E 008°50'0 0.0
2017-Apr-20 12:26N 44°25' E 008°50'0 0.0
2017-Apr-20 11:59N 44°25' E 008°50'0 0.0
2017-Apr-20 11:26N 44°25' E 008°50'0 0.0
2017-Apr-20 10:56N 44°25' E 008°50'0 0.0
2017-Apr-20 10:26N 44°25' E 008°50'0 0.0
2017-Apr-20 09:44N 44°25' E 008°50'0 0.0
2017-Apr-20 09:26N 44°25' E 008°50'0 0.0
2017-Apr-20 08:47N 44°25' E 008°50'0 0.0
2017-Apr-20 08:29N 44°25' E 008°50'0 0.0
2017-Apr-20 07:59N 44°25' E 008°50'0 0.0
2017-Apr-20 07:29N 44°25' E 008°50'0 0.0
2017-Apr-20 06:47N 44°25' E 008°50'0 0.0
2017-Apr-20 06:29N 44°25' E 008°50'0 0.3
2017-Apr-20 06:01N 44°25' E 008°50'2 3.8
2017-Apr-20 05:31N 44°24' E 008°48'1 1.2
2017-Apr-20 05:01N 44°23' E 008°47'2 3.4
2017-Apr-20 04:30N 44°22' E 008°47'3 6.7
2017-Apr-20 04:01N 44°19' E 008°45'3 6.7
2017-Apr-20 03:30N 44°15' E 008°43'2 4.6
2017-Apr-20 03:00N 44°13' E 008°42'0 0.8
2017-Apr-20 02:31N 44°14' E 008°42'0 0.9
2017-Apr-20 02:01N 44°14' E 008°43'0 0.9
2017-Apr-20 01:30N 44°14' E 008°43'0 0.9
2017-Apr-20 01:00N 44°15' E 008°43'0 1.0
2017-Apr-20 00:31N 44°15' E 008°44'0 1.0
2017-Apr-20 00:00N 44°15' E 008°44'1 1.0
2017-Apr-19 23:28N 44°16' E 008°45'0 0.9
2017-Apr-19 22:58N 44°16' E 008°45'1 2.4
2017-Apr-19 22:30N 44°16' E 008°44'5 9.0
2017-Apr-19 22:00N 44°12' E 008°41'5 9.1
2017-Apr-19 21:30N 44°09' E 008°36'5 9.1
2017-Apr-19 20:56N 44°06' E 008°31'31 9.6
2017-Apr-19 17:39N 43°45' E 007°58'210.4
2017-Apr-19 17:28N 43°44' E 007°56'510.4
2017-Apr-19 17:00N 43°41' E 007°51'510.3
2017-Apr-19 16:30N 43°38' E 007°45'510.3
2017-Apr-19 16:00N 43°35' E 007°40'510.0
2017-Apr-19 15:30N 43°31' E 007°34'5 9.8
2017-Apr-19 15:00N 43°28' E 007°29'5 9.7
2017-Apr-19 14:30N 43°25' E 007°24'10 9.7
2017-Apr-19 13:30N 43°19' E 007°13'94 8.8
2017-Apr-19 02:52N 43°10' E 005°06'910.6
2017-Apr-19 01:59N 43°18' E 004°59'510.4
2017-Apr-19 01:30N 43°23' E 004°58'2 3.2
2017-Apr-19 00:59N 43°24' E 004°60'0 0.0
2017-Apr-19 00:29N 43°24' E 004°60'0 0.0
2017-Apr-18 23:59N 43°24' E 004°60'0 0.0
2017-Apr-18 23:29N 43°24' E 004°60'0 0.0
2017-Apr-18 22:59N 43°24' E 004°60'0 0.0
2017-Apr-18 22:20N 43°24' E 004°60'0 0.0
2017-Apr-18 21:59N 43°24' E 004°60'0 0.0
2017-Apr-18 21:29N 43°24' E 004°60'0 0.0
2017-Apr-18 20:56N 43°24' E 004°60'0 0.0
2017-Apr-18 20:29N 43°24' E 004°60'0 0.0
2017-Apr-18 19:59N 43°24' E 004°60'0 0.0
2017-Apr-18 19:29N 43°24' E 004°60'0 0.0
2017-Apr-18 18:59N 43°24' E 004°60'0 0.0
2017-Apr-18 18:26N 43°24' E 004°60'0 0.0
2017-Apr-18 17:59N 43°24' E 004°60'0 0.0
2017-Apr-18 17:29N 43°24' E 004°60'0 0.0
2017-Apr-18 16:59N 43°24' E 004°60'0 0.0
2017-Apr-18 16:23N 43°24' E 004°60'0 0.0
2017-Apr-18 15:59N 43°24' E 004°60'0 0.0
2017-Apr-18 15:26N 43°24' E 004°60'0 0.0
2017-Apr-18 14:59N 43°24' E 004°60'0 0.0
2017-Apr-18 13:59N 43°24' E 004°60'0 0.0
2017-Apr-18 13:26N 43°24' E 004°60'0 0.0
2017-Apr-18 12:59N 43°24' E 004°60'0 0.0
2017-Apr-18 12:26N 43°24' E 004°60'0 0.0
2017-Apr-18 11:59N 43°24' E 004°60'0 0.0
2017-Apr-18 11:29N 43°24' E 004°60'0 0.0
2017-Apr-18 10:56N 43°24' E 004°60'0 0.0
2017-Apr-18 10:26N 43°24' E 004°60'0 0.0
2017-Apr-18 09:56N 43°24' E 004°60'0 0.0
2017-Apr-18 09:29N 43°24' E 004°60'0 0.0
2017-Apr-18 08:59N 43°24' E 004°60'0 0.0
2017-Apr-18 08:26N 43°24' E 004°60'0 0.0
2017-Apr-18 07:59N 43°24' E 004°60'0 0.0
2017-Apr-18 07:29N 43°24' E 004°60'0 0.0
2017-Apr-18 06:59N 43°24' E 004°60'0 0.0
2017-Apr-18 06:29N 43°24' E 004°60'0 0.0
2017-Apr-18 05:59N 43°24' E 004°60'0 0.0
2017-Apr-18 05:23N 43°24' E 004°60'0 0.0
2017-Apr-18 04:56N 43°24' E 004°60'0 0.0
2017-Apr-18 04:29N 43°24' E 004°60'0 0.0
2017-Apr-18 03:59N 43°24' E 004°60'0 0.0
2017-Apr-18 03:26N 43°24' E 004°60'0 0.0
2017-Apr-18 02:59N 43°24' E 004°60'0 0.0
2017-Apr-18 02:29N 43°24' E 004°60'0 0.0
2017-Apr-18 01:59N 43°24' E 004°60'0 0.0
2017-Apr-18 01:29N 43°24' E 004°60'0 0.0
2017-Apr-18 00:56N 43°24' E 004°60'0 0.0
2017-Apr-18 00:29N 43°24' E 004°60'0 0.0
2017-Apr-17 23:59N 43°24' E 004°60'0 0.0
2017-Apr-17 23:29N 43°24' E 004°60'0 0.0
2017-Apr-17 22:59N 43°24' E 004°60'0 0.0
2017-Apr-17 22:26N 43°24' E 004°60'0 0.0
2017-Apr-17 21:59N 43°24' E 004°60'0 0.0
2017-Apr-17 21:26N 43°24' E 004°60'0 0.0
2017-Apr-17 20:59N 43°24' E 004°60'0 0.0
2017-Apr-17 20:29N 43°24' E 004°60'0 0.0
2017-Apr-17 19:59N 43°24' E 004°60'0 0.0
2017-Apr-17 19:26N 43°24' E 004°60'0 0.0
2017-Apr-17 18:56N 43°24' E 004°60'0 0.0
2017-Apr-17 18:26N 43°24' E 004°60'0 0.0
2017-Apr-17 17:59N 43°24' E 004°60'0 0.0
2017-Apr-17 17:29N 43°24' E 004°60'0 0.0
2017-Apr-17 16:59N 43°24' E 004°60'0 0.0
2017-Apr-17 16:20N 43°24' E 004°60'0 0.0
2017-Apr-17 15:59N 43°24' E 004°60'0 0.0
2017-Apr-17 15:26N 43°24' E 004°60'0 0.0
2017-Apr-17 14:53N 43°24' E 004°60'0 0.0
2017-Apr-17 14:29N 43°24' E 004°60'0 0.0
2017-Apr-17 13:26N 43°24' E 004°60'0 0.0
2017-Apr-17 12:59N 43°24' E 004°60'0 0.0
2017-Apr-17 12:29N 43°24' E 004°60'0 0.0
2017-Apr-17 11:56N 43°24' E 004°60'0 0.0
2017-Apr-17 11:26N 43°24' E 004°60'0 0.0
2017-Apr-17 10:56N 43°24' E 004°60'0 0.0
2017-Apr-17 10:29N 43°24' E 004°60'0 0.0
2017-Apr-17 09:56N 43°24' E 004°60'0 0.0
2017-Apr-17 09:29N 43°24' E 004°60'0 0.0
2017-Apr-17 08:59N 43°24' E 004°60'0 0.0
2017-Apr-17 08:29N 43°24' E 004°60'0 0.5
2017-Apr-17 08:00N 43°24' E 004°60'2 3.0
2017-Apr-17 07:28N 43°24' E 004°57'0 0.1
2017-Apr-17 06:58N 43°23' E 004°57'0 0.0
2017-Apr-17 06:28N 43°23' E 004°57'0 0.0
2017-Apr-17 05:55N 43°23' E 004°57'0 0.0
2017-Apr-17 05:28N 43°23' E 004°57'0 0.0
2017-Apr-17 04:58N 43°23' E 004°58'0 0.0
2017-Apr-17 04:28N 43°23' E 004°58'0 0.0
2017-Apr-17 03:58N 43°23' E 004°58'0 0.0
2017-Apr-17 03:28N 43°23' E 004°58'0 0.0
2017-Apr-17 02:58N 43°23' E 004°57'0 0.0
2017-Apr-17 02:25N 43°23' E 004°57'0 0.0
2017-Apr-17 01:55N 43°23' E 004°57'0 0.0
2017-Apr-17 01:28N 43°23' E 004°57'0 0.0
2017-Apr-17 00:58N 43°23' E 004°57'0 0.0
2017-Apr-17 00:25N 43°23' E 004°57'0 0.0
2017-Apr-16 23:58N 43°23' E 004°57'0 0.0
2017-Apr-16 23:28N 43°23' E 004°57'0 0.0
2017-Apr-16 22:55N 43°23' E 004°57'0 0.1
2017-Apr-16 22:28N 43°23' E 004°57'2 4.0
2017-Apr-16 22:00N 43°22' E 004°58'6 6.6
2017-Apr-16 21:04N 43°16' E 005°01'0 7.2
2017-Apr-16 21:00N 43°15' E 005°01'16 7.9
2017-Apr-16 19:02N 43°02' E 004°51'0 8.9
2017-Apr-16 19:01N 43°01' E 004°51'18 8.9
2017-Apr-16 17:02N 42°48' E 004°36'0 9.1
2017-Apr-16 17:00N 42°47' E 004°36'13 8.9
2017-Apr-16 15:34N 42°37' E 004°25'107 7.4
2017-Apr-16 01:04N 41°23' E 002°42'111.6
2017-Apr-16 01:00N 41°23' E 002°41'611.7
2017-Apr-16 00:30N 41°20' E 002°34'711.6
2017-Apr-15 23:55N 41°17' E 002°26'912.2
2017-Apr-15 23:13N 41°17' E 002°15'311.7
2017-Apr-15 22:59N 41°17' E 002°11'4 5.1
2017-Apr-15 22:14N 41°20' E 002°09'0 0.0
2017-Apr-15 05:01N 41°20' E 002°09'1 2.6
2017-Apr-15 04:48N 41°21' E 002°10'2 6.5
2017-Apr-15 04:30N 41°19' E 002°10'3 5.9
2017-Apr-15 04:00N 41°16' E 002°12'3 6.2
2017-Apr-15 03:30N 41°14' E 002°09'510.4
2017-Apr-15 03:00N 41°09' E 002°06'611.2
2017-Apr-15 02:30N 41°04' E 002°03'611.4
2017-Apr-15 02:00N 40°59' E 001°59'611.2
2017-Apr-15 01:30N 40°54' E 001°56'610.9
2017-Apr-15 01:00N 40°49' E 001°52'510.9
2017-Apr-15 00:30N 40°44' E 001°49'511.0
2017-Apr-15 00:00N 40°39' E 001°46'611.4
2017-Apr-14 23:30N 40°34' E 001°42'611.5
2017-Apr-14 23:00N 40°29' E 001°39'611.6
2017-Apr-14 22:30N 40°24' E 001°36'611.4
2017-Apr-14 22:00N 40°19' E 001°32'611.3
2017-Apr-14 21:30N 40°14' E 001°29'611.4
2017-Apr-14 21:00N 40°09' E 001°25'611.4
2017-Apr-14 20:30N 40°04' E 001°22'611.5
2017-Apr-14 20:00N 39°59' E 001°19'611.5
2017-Apr-14 19:30N 39°54' E 001°15'611.5
2017-Apr-14 19:00N 39°49' E 001°12'8310.3
2017-Apr-14 11:00N 38°35' E 000°22'611.5
2017-Apr-14 10:30N 38°31' E 000°18'611.3
2017-Apr-14 10:00N 38°26' E 000°14'611.5
2017-Apr-14 09:30N 38°21' E 000°10'3211.3
2017-Apr-14 06:41N 37°54' W 000°12'1111.0
2017-Apr-14 05:39N 37°45' W 000°21'210.9
2017-Apr-14 05:30N 37°44' W 000°22'510.8
2017-Apr-14 05:00N 37°39' W 000°26'510.7
2017-Apr-14 04:30N 37°35' W 000°29'611.0
2017-Apr-14 04:00N 37°31' W 000°34'1311.4
2017-Apr-14 02:53N 37°23' W 000°46'511.2
2017-Apr-14 02:29N 37°20' W 000°50'19810.1
2017-Apr-13 06:56N 36°05' W 004°39'1410.3
2017-Apr-13 05:37N 36°02' W 004°55'212.0
2017-Apr-13 05:29N 36°02' W 004°58'611.9
2017-Apr-13 04:59N 36°01' W 005°05'613.3
2017-Apr-13 04:30N 36°00' W 005°13'714.1
2017-Apr-13 04:00N 35°59' W 005°21'713.4
2017-Apr-13 03:30N 35°57' W 005°29'612.0
2017-Apr-13 03:00N 35°56' W 005°36'510.8
2017-Apr-13 02:30N 35°55' W 005°43'511.2
2017-Apr-13 02:00N 35°55' W 005°50'510.8
2017-Apr-13 01:30N 35°55' W 005°56'4810.9
2017-Apr-12 21:07N 36°02' W 006°55'111.7
2017-Apr-12 21:00N 36°02' W 006°56'611.6
2017-Apr-12 20:28N 36°04' W 007°04'511.4
2017-Apr-12 20:00N 36°05' W 007°10'711.7
2017-Apr-12 19:23N 36°07' W 007°19'611.9
2017-Apr-12 18:53N 36°08' W 007°26'511.6
2017-Apr-12 18:29N 36°09' W 007°31'711.9
2017-Apr-12 17:55N 36°11' W 007°40'511.4
2017-Apr-12 17:28N 36°12' W 007°46'611.3
2017-Apr-12 16:54N 36°13' W 007°54'511.2
2017-Apr-12 16:29N 36°15' W 007°59'4010.9
2017-Apr-12 12:47N 36°24' W 008°48'310.9
2017-Apr-12 12:30N 36°25' W 008°51'511.0
2017-Apr-12 12:00N 36°26' W 008°58'610.9
2017-Apr-12 11:30N 36°28' W 009°05'1310.9
2017-Apr-12 10:20N 36°30' W 009°20'411.1
2017-Apr-12 10:00N 36°33' W 009°23'611.4
2017-Apr-12 09:30N 36°37' W 009°28'611.3
2017-Apr-12 09:00N 36°41' W 009°33'611.3
2017-Apr-12 08:30N 36°46' W 009°37'611.2
2017-Apr-12 08:00N 36°51' W 009°39'611.3
2017-Apr-12 07:30N 36°56' W 009°41'611.3
2017-Apr-12 07:00N 37°02' W 009°43'511.2
2017-Apr-12 06:30N 37°07' W 009°45'611.3
2017-Apr-12 06:00N 37°13' W 009°47'611.3
2017-Apr-12 05:28N 37°18' W 009°49'2111.3
2017-Apr-12 03:37N 37°38' W 009°58'111.4
2017-Apr-12 03:30N 37°39' W 009°59'611.3
2017-Apr-12 03:00N 37°45' W 010°02'611.2
2017-Apr-12 02:30N 37°50' W 010°04'611.2
2017-Apr-12 02:00N 37°55' W 010°06'510.5
2017-Apr-12 01:30N 38°00' W 010°08'1 1.1
2017-Apr-12 01:00N 38°01' W 010°08'1 2.9
2017-Apr-12 00:30N 38°02' W 010°07'4 8.7
2017-Apr-12 00:01N 38°05' W 010°04'5 8.1
2017-Apr-11 23:27N 38°09' W 010°02'510.6
2017-Apr-11 23:01N 38°14' W 010°04'510.9
2017-Apr-11 22:30N 38°19' W 010°05'510.7
2017-Apr-11 22:00N 38°25' W 010°06'510.4
2017-Apr-11 21:30N 38°30' W 010°08'510.4
2017-Apr-11 21:00N 38°35' W 010°10'510.5
2017-Apr-11 20:29N 38°40' W 010°11'510.3
2017-Apr-11 20:00N 38°45' W 010°11'510.5
2017-Apr-11 19:30N 38°50' W 010°11'511.0
2017-Apr-11 19:00N 38°56' W 010°12'611.2
2017-Apr-11 18:30N 39°01' W 010°11'611.0
2017-Apr-11 18:00N 39°07' W 010°11'610.5
2017-Apr-11 17:28N 39°12' W 010°11'510.4
2017-Apr-11 17:01N 39°17' W 010°11'610.8
2017-Apr-11 16:30N 39°23' W 010°11'510.4
2017-Apr-11 16:00N 39°28' W 010°11'510.3
2017-Apr-11 15:30N 39°33' W 010°11'510.5
2017-Apr-11 15:00N 39°38' W 010°11'510.7
2017-Apr-11 14:30N 39°44' W 010°11'1110.7
2017-Apr-11 13:30N 39°54' W 010°12'510.8
2017-Apr-11 13:00N 39°60' W 010°11'610.6
2017-Apr-11 12:24N 40°06' W 010°11'410.8
2017-Apr-11 12:00N 40°10' W 010°11'510.7
2017-Apr-11 11:30N 40°16' W 010°11'510.4
2017-Apr-11 11:00N 40°21' W 010°11'510.8
2017-Apr-11 10:30N 40°26' W 010°11'510.9
2017-Apr-11 10:00N 40°32' W 010°11'510.6
2017-Apr-11 09:30N 40°37' W 010°11'510.7
2017-Apr-11 09:00N 40°42' W 010°11'  

Dump ship's entire track history